Hoffman Estates, Illinois
Current Conditions -  °F | °C
As of 8:52 PM on Monday 26 Jan 2015 (Local Time) from KDPA Reporting Station
Haze Haze  
Wind Chill: 26°   Ceiling: 500
Heat Index: 26°   Visibility: 4mi
Dew Point: 24°   Wind: 3mph
Humidity: 92%   Direction: 150°SSE
Pressure: 29.89"   Gusts: NA
Location:  42.06°N, 88.12°W
Report Text: KDPA 270252Z 15003KT 4SM BR OVC005 M03/M04 A2989 RMK AO2 SLP132 60000 I3003 T10331044 53004
Loading
Personal Weather Stations






























Interactive Weather Map New forecast layout! Learn more

10-Day Weather Forecast

Advertisements
Track Severe Weather on mobile